This is the latest recevied weather packets stored in our database for station/object AI5BL. If no packets are shown the sender has not sent any weather packets the latest 10 day(s).
| Time | Temp. | Humidity | Pressure | Rain* | Wind** | Luminosity | Snow |
|---|---|---|---|---|---|---|---|
| 1777778929 | 10.56° C | 92% | 1021.2 hPa | 0 mm | - | 0 W/m² | - |
| 1777778628 | 10.56° C | 92% | 1021.2 hPa | 0 mm | - | 0 W/m² | - |
| 1777778325 | 10.56° C | 92% | 1021.2 hPa | 0 mm | - | 0 W/m² | - |
| 1777778023 | 10.56° C | 92% | 1021.2 hPa | 0 mm | - | 0 W/m² | - |
| 1777777719 | 10.56° C | 92% | 1021.1 hPa | 0 mm | - | 0 W/m² | - |
| 1777777416 | 10.56° C | 92% | 1021.1 hPa | 0 mm | - | 0 W/m² | - |
| 1777777112 | 11.11° C | 91% | 1021.1 hPa | 0 mm | - | 0 W/m² | - |
| 1777776810 | 10.56° C | 90% | 1020.9 hPa | 0 mm | - | 0 W/m² | - |
| 1777776507 | 11.11° C | 91% | 1020.9 hPa | 0 mm | - | 0 W/m² | - |
| 1777776203 | 10.56° C | 91% | 1020.8 hPa | 0 mm | - | 0 W/m² | - |
| 1777775900 | 11.11° C | 91% | 1020.8 hPa | 0 mm | - | 0 W/m² | - |
| 1777775598 | 11.11° C | 89% | 1020.5 hPa | 0 mm | - | 0 W/m² | - |
| 1777775294 | 11.67° C | 89% | 1020.8 hPa | 0 mm | - | 0 W/m² | - |
| 1777774994 | 11.67° C | 89% | 1020.5 hPa | 0 mm | - | 0 W/m² | - |
| 1777774691 | 11.67° C | 90% | 1020.4 hPa | 0 mm | - | 0 W/m² | - |
| 1777774387 | 11.67° C | 89% | 1020.3 hPa | 0 mm | - | 0 W/m² | - |
| 1777774085 | 11.67° C | 89% | 1020.4 hPa | 0 mm | - | 0 W/m² | - |
| 1777773786 | 11.67° C | 87% | 1020.5 hPa | 0 mm | - | 0 W/m² | - |
| 1777773176 | 11.67° C | 86% | 1020.2 hPa | 0 mm | - | 0 W/m² | - |
| 1777772871 | 12.22° C | 85% | 1020.2 hPa | 0 mm | - | 0 W/m² | - |
| 1777771964 | 12.78° C | 83% | 1020 hPa | 0 mm | - | 0 W/m² | - |
| 1777771055 | 13.89° C | 77% | 1019.9 hPa | 0 mm | - | 0 W/m² | - |
| 1777770145 | 15° C | 73% | 1019.7 hPa | 0 mm | - | 1 W/m² | - |
| 1777769540 | 15° C | 73% | 1019.7 hPa | 0 mm | - | 1 W/m² | - |
| 1777768631 | 18.33° C | 55% | 1019.2 hPa | 0 mm | - | 17 W/m² | - |
* Rain latest hour (hover to see other rain measurements)
** Current wind speed in m/s (hover to see current wind gust speed)